Details for Korean Air at RKPK




Go Back


Latest METAR
Local Time

RKPK 241300Z 03010KT CAVOK 07/02 Q1027 NOSIG

24/02/2018, 22:53:09

Description
Results
Korean Air Logo
Number of Pilots based at RKPK
0 Pilots Based here
Number of Korean Air Flights Departed from RKPK
0 Flights Departed
Number of Korean Air Flights Arrived at RKPK
0 Flights Arrived
Number of Korean Air Schedules Departing from RKPK
47 Schedules
Number of Korean Air Schedules Arriving at RKPK
50 Schedules
Number of Korean Air Schedules Departing from RKPK availible today
37 Schedules Today
Number of Korean Air Schedules Arriving at RKPK availible today
37 Schedules Today
Average Landing Rate at RKPK
0 fpm
Korean Air Average Landing Rate at RKPK
0 fpm
Total Fuel Purchased at RKPK by Korean Air
0.00 kgs / 0.00 lbs

Pilots Based at RKPK


Pilot ID
Pilot Name
Pilot Rank
No. of Flights
No. of Flying Hours
There are no pilots assigned to this hub!   Will you be the first?
Content